sensor_id;sensor_type;location;lat;lon;timestamp;pressure;altitude;pressure_sealevel;temperature;humidity
61039;BME280;46919;45.816;3.104;2023-04-29T00:00:02;97740.91;;;16.26;100.00
61039;BME280;46919;45.816;3.104;2023-04-29T00:02:30;97743.88;;;16.24;100.00
61039;BME280;46919;45.816;3.104;2023-04-29T00:04:56;97751.47;;;16.17;100.00
61039;BME280;46919;45.816;3.104;2023-04-29T00:07:22;97762.63;;;16.16;100.00
61039;BME280;46919;45.816;3.104;2023-04-29T00:09:47;97769.72;;;16.11;100.00
61039;BME280;46919;45.816;3.104;2023-04-29T00:12:12;97767.53;;;16.08;100.00
61039;BME280;46919;45.816;3.104;2023-04-29T00:14:38;97757.69;;;16.07;100.00
61039;BME280;46919;45.816;3.104;2023-04-29T00:17:03;97746.25;;;16.05;100.00
61039;BME280;46919;45.816;3.104;2023-04-29T00:19:29;97727.44;;;16.04;100.00
61039;BME280;46919;45.816;3.104;2023-04-29T00:21:54;97744.53;;;15.94;100.00
61039;BME280;46919;45.816;3.104;2023-04-29T00:24:20;97745.59;;;15.88;100.00
61039;BME280;46919;45.816;3.104;2023-04-29T00:26:45;97739.00;;;15.84;100.00
61039;BME280;46919;45.816;3.104;2023-04-29T00:29:11;97731.09;;;15.82;100.00
61039;BME280;46919;45.816;3.104;2023-04-29T00:31:36;97733.53;;;15.79;100.00
61039;BME280;46919;45.816;3.104;2023-04-29T00:34:02;97746.63;;;15.77;100.00
61039;BME280;46919;45.816;3.104;2023-04-29T00:36:27;97742.19;;;15.70;100.00
61039;BME280;46919;45.816;3.104;2023-04-29T00:38:53;97739.13;;;15.67;100.00
61039;BME280;46919;45.816;3.104;2023-04-29T00:41:19;97744.00;;;15.60;100.00
61039;BME280;46919;45.816;3.104;2023-04-29T00:43:45;97737.41;;;15.55;100.00
61039;BME280;46919;45.816;3.104;2023-04-29T00:46:10;97725.69;;;15.50;100.00
61039;BME280;46919;45.816;3.104;2023-04-29T00:48:36;97719.66;;;15.48;100.00
61039;BME280;46919;45.816;3.104;2023-04-29T00:51:02;97721.28;;;15.44;100.00
61039;BME280;46919;45.816;3.104;2023-04-29T00:53:29;97722.84;;;15.39;100.00
61039;BME280;46919;45.816;3.104;2023-04-29T00:55:55;97720.91;;;15.35;100.00
61039;BME280;46919;45.816;3.104;2023-04-29T00:58:21;97727.72;;;15.32;100.00
61039;BME280;46919;45.816;3.104;2023-04-29T01:00:48;97720.63;;;15.31;100.00
61039;BME280;46919;45.816;3.104;2023-04-29T01:03:14;97721.13;;;15.28;100.00
61039;BME280;46919;45.816;3.104;2023-04-29T01:05:40;97723.84;;;15.28;100.00
61039;BME280;46919;45.816;3.104;2023-04-29T01:08:33;97724.66;;;15.29;100.00
61039;BME280;46919;45.816;3.104;2023-04-29T01:11:01;97724.66;;;15.29;100.00
61039;BME280;46919;45.816;3.104;2023-04-29T01:13:34;97729.31;;;15.28;100.00
61039;BME280;46919;45.816;3.104;2023-04-29T01:16:03;97723.31;;;15.26;100.00
61039;BME280;46919;45.816;3.104;2023-04-29T01:18:36;97717.03;;;15.26;100.00
61039;BME280;46919;45.816;3.104;2023-04-29T01:21:02;97726.53;;;15.23;100.00
61039;BME280;46919;45.816;3.104;2023-04-29T01:23:28;97725.16;;;15.20;100.00
61039;BME280;46919;45.816;3.104;2023-04-29T01:25:54;97728.66;;;15.16;100.00
61039;BME280;46919;45.816;3.104;2023-04-29T01:28:42;97723.94;;;15.06;100.00
61039;BME280;46919;45.816;3.104;2023-04-29T01:31:43;97717.38;;;15.02;100.00
61039;BME280;46919;45.816;3.104;2023-04-29T01:34:39;97715.72;;;15.01;100.00
61039;BME280;46919;45.816;3.104;2023-04-29T01:37:16;97718.66;;;14.94;100.00
61039;BME280;46919;45.816;3.104;2023-04-29T01:42:38;97701.81;;;14.97;100.00
61039;BME280;46919;45.816;3.104;2023-04-29T01:45:06;97698.59;;;15.00;100.00
61039;BME280;46919;45.816;3.104;2023-04-29T01:47:32;97715.94;;;14.94;100.00
61039;BME280;46919;45.816;3.104;2023-04-29T01:49:58;97712.63;;;14.92;100.00
61039;BME280;46919;45.816;3.104;2023-04-29T01:52:23;97709.38;;;14.90;100.00
61039;BME280;46919;45.816;3.104;2023-04-29T01:54:49;97711.00;;;14.91;100.00
61039;BME280;46919;45.816;3.104;2023-04-29T01:57:14;97704.56;;;14.97;100.00
61039;BME280;46919;45.816;3.104;2023-04-29T01:59:41;97701.16;;;14.85;100.00
61039;BME280;46919;45.816;3.104;2023-04-29T02:02:06;97702.19;;;14.79;100.00
61039;BME280;46919;45.816;3.104;2023-04-29T02:04:31;97709.78;;;14.77;100.00
61039;BME280;46919;45.816;3.104;2023-04-29T02:06:58;97713.56;;;14.76;100.00
61039;BME280;46919;45.816;3.104;2023-04-29T02:09:24;97722.81;;;14.75;100.00
61039;BME280;46919;45.816;3.104;2023-04-29T02:11:49;97754.34;;;14.71;100.00
61039;BME280;46919;45.816;3.104;2023-04-29T02:14:15;97735.78;;;14.67;100.00
61039;BME280;46919;45.816;3.104;2023-04-29T02:16:43;97713.47;;;14.65;100.00
61039;BME280;46919;45.816;3.104;2023-04-29T02:19:09;97714.81;;;14.63;100.00
61039;BME280;46919;45.816;3.104;2023-04-29T02:21:35;97711.81;;;14.64;100.00
61039;BME280;46919;45.816;3.104;2023-04-29T02:24:00;97705.84;;;14.62;100.00
61039;BME280;46919;45.816;3.104;2023-04-29T02:26:26;97710.69;;;14.60;100.00
61039;BME280;46919;45.816;3.104;2023-04-29T02:28:52;97710.91;;;14.59;100.00
61039;BME280;46919;45.816;3.104;2023-04-29T02:31:17;97703.84;;;14.58;100.00
61039;BME280;46919;45.816;3.104;2023-04-29T02:33:43;97701.38;;;14.56;100.00
61039;BME280;46919;45.816;3.104;2023-04-29T02:36:08;97707.06;;;14.55;100.00
61039;BME280;46919;45.816;3.104;2023-04-29T02:38:34;97694.28;;;14.55;100.00
61039;BME280;46919;45.816;3.104;2023-04-29T02:40:59;97695.44;;;14.59;100.00
61039;BME280;46919;45.816;3.104;2023-04-29T02:43:24;97693.91;;;14.68;100.00
61039;BME280;46919;45.816;3.104;2023-04-29T02:45:50;97693.75;;;14.80;100.00
61039;BME280;46919;45.816;3.104;2023-04-29T02:48:16;97688.28;;;14.75;100.00
61039;BME280;46919;45.816;3.104;2023-04-29T02:50:42;97698.91;;;14.77;100.00
61039;BME280;46919;45.816;3.104;2023-04-29T02:53:07;97698.81;;;14.72;100.00
61039;BME280;46919;45.816;3.104;2023-04-29T02:55:33;97696.03;;;14.61;100.00
61039;BME280;46919;45.816;3.104;2023-04-29T02:57:58;97692.03;;;14.69;100.00
61039;BME280;46919;45.816;3.104;2023-04-29T03:00:23;97698.03;;;14.71;100.00
61039;BME280;46919;45.816;3.104;2023-04-29T03:02:49;97709.19;;;14.75;100.00
61039;BME280;46919;45.816;3.104;2023-04-29T03:05:15;97708.94;;;14.76;100.00
61039;BME280;46919;45.816;3.104;2023-04-29T03:07:40;97700.44;;;14.67;100.00
61039;BME280;46919;45.816;3.104;2023-04-29T03:10:06;97693.13;;;14.73;100.00
61039;BME280;46919;45.816;3.104;2023-04-29T03:12:31;97691.31;;;14.79;100.00
61039;BME280;46919;45.816;3.104;2023-04-29T03:14:58;97684.28;;;14.83;100.00
61039;BME280;46919;45.816;3.104;2023-04-29T03:17:23;97681.56;;;14.83;100.00
61039;BME280;46919;45.816;3.104;2023-04-29T03:19:48;97684.22;;;14.78;100.00
61039;BME280;46919;45.816;3.104;2023-04-29T03:22:15;97677.44;;;14.80;100.00
61039;BME280;46919;45.816;3.104;2023-04-29T03:24:40;97679.91;;;14.82;100.00
61039;BME280;46919;45.816;3.104;2023-04-29T03:27:06;97669.50;;;14.74;100.00
61039;BME280;46919;45.816;3.104;2023-04-29T03:29:31;97668.34;;;14.70;100.00
61039;BME280;46919;45.816;3.104;2023-04-29T03:31:57;97678.16;;;14.71;100.00
61039;BME280;46919;45.816;3.104;2023-04-29T03:34:23;97685.19;;;14.66;100.00
61039;BME280;46919;45.816;3.104;2023-04-29T03:36:49;97693.28;;;14.61;100.00
61039;BME280;46919;45.816;3.104;2023-04-29T03:39:15;97695.09;;;14.56;100.00
61039;BME280;46919;45.816;3.104;2023-04-29T03:41:41;97682.00;;;14.53;100.00
61039;BME280;46919;45.816;3.104;2023-04-29T03:44:06;97672.53;;;14.55;100.00
61039;BME280;46919;45.816;3.104;2023-04-29T03:46:32;97669.22;;;14.48;100.00
61039;BME280;46919;45.816;3.104;2023-04-29T03:48:57;97674.56;;;14.43;100.00
61039;BME280;46919;45.816;3.104;2023-04-29T03:51:23;97674.78;;;14.36;100.00
61039;BME280;46919;45.816;3.104;2023-04-29T03:53:50;97679.66;;;14.34;100.00
61039;BME280;46919;45.816;3.104;2023-04-29T03:56:17;97670.47;;;14.40;100.00
61039;BME280;46919;45.816;3.104;2023-04-29T03:58:44;97668.56;;;14.41;100.00
61039;BME280;46919;45.816;3.104;2023-04-29T04:01:10;97659.00;;;14.38;100.00
61039;BME280;46919;45.816;3.104;2023-04-29T04:03:36;97665.28;;;14.39;100.00
61039;BME280;46919;45.816;3.104;2023-04-29T04:06:02;97662.63;;;14.44;100.00
61039;BME280;46919;45.816;3.104;2023-04-29T04:08:27;97654.50;;;14.49;100.00
61039;BME280;46919;45.816;3.104;2023-04-29T04:10:52;97655.97;;;14.57;100.00
61039;BME280;46919;45.816;3.104;2023-04-29T04:13:18;97654.63;;;14.59;100.00
61039;BME280;46919;45.816;3.104;2023-04-29T04:15:49;97644.59;;;14.60;100.00
61039;BME280;46919;45.816;3.104;2023-04-29T04:18:15;97639.84;;;14.50;100.00
61039;BME280;46919;45.816;3.104;2023-04-29T04:20:41;97640.97;;;14.54;100.00
61039;BME280;46919;45.816;3.104;2023-04-29T04:23:06;97628.50;;;14.58;100.00
61039;BME280;46919;45.816;3.104;2023-04-29T04:25:31;97628.28;;;14.60;100.00
61039;BME280;46919;45.816;3.104;2023-04-29T04:27:57;97633.91;;;14.53;100.00
61039;BME280;46919;45.816;3.104;2023-04-29T04:30:22;97629.50;;;14.47;100.00
61039;BME280;46919;45.816;3.104;2023-04-29T04:32:48;97633.78;;;14.43;100.00
61039;BME280;46919;45.816;3.104;2023-04-29T04:35:13;97630.50;;;14.41;100.00
61039;BME280;46919;45.816;3.104;2023-04-29T04:37:39;97636.47;;;14.38;100.00
61039;BME280;46919;45.816;3.104;2023-04-29T04:40:05;97637.09;;;14.45;100.00
61039;BME280;46919;45.816;3.104;2023-04-29T04:42:30;97637.66;;;14.47;100.00
61039;BME280;46919;45.816;3.104;2023-04-29T04:44:56;97641.47;;;14.51;100.00
61039;BME280;46919;45.816;3.104;2023-04-29T04:47:21;97639.22;;;14.43;100.00
61039;BME280;46919;45.816;3.104;2023-04-29T04:49:47;97648.91;;;14.34;100.00
61039;BME280;46919;45.816;3.104;2023-04-29T04:52:14;97651.63;;;14.34;100.00
61039;BME280;46919;45.816;3.104;2023-04-29T04:54:39;97659.22;;;14.31;100.00
61039;BME280;46919;45.816;3.104;2023-04-29T04:57:04;97653.78;;;14.31;100.00
61039;BME280;46919;45.816;3.104;2023-04-29T04:59:30;97659.22;;;14.31;100.00
61039;BME280;46919;45.816;3.104;2023-04-29T05:01:56;97658.66;;;14.29;100.00
61039;BME280;46919;45.816;3.104;2023-04-29T05:04:21;97658.34;;;14.26;100.00
61039;BME280;46919;45.816;3.104;2023-04-29T05:06:47;97667.56;;;14.25;100.00
61039;BME280;46919;45.816;3.104;2023-04-29T05:09:12;97668.13;;;14.27;100.00
61039;BME280;46919;45.816;3.104;2023-04-29T05:11:37;97661.63;;;14.28;100.00
61039;BME280;46919;45.816;3.104;2023-04-29T05:14:03;97667.38;;;14.31;100.00
61039;BME280;46919;45.816;3.104;2023-04-29T05:16:29;97661.13;;;14.31;100.00
61039;BME280;46919;45.816;3.104;2023-04-29T05:18:54;97663.34;;;14.34;100.00
61039;BME280;46919;45.816;3.104;2023-04-29T05:21:19;97668.31;;;14.42;100.00
61039;BME280;46919;45.816;3.104;2023-04-29T05:23:45;97662.41;;;14.50;100.00
61039;BME280;46919;45.816;3.104;2023-04-29T05:26:10;97662.22;;;14.57;100.00
61039;BME280;46919;45.816;3.104;2023-04-29T05:28:36;97666.28;;;14.55;100.00
61039;BME280;46919;45.816;3.104;2023-04-29T05:31:01;97661.09;;;14.53;100.00
61039;BME280;46919;45.816;3.104;2023-04-29T05:33:26;97669.00;;;14.55;100.00
61039;BME280;46919;45.816;3.104;2023-04-29T05:35:52;97672.28;;;14.57;100.00
61039;BME280;46919;45.816;3.104;2023-04-29T05:38:17;97678.22;;;14.54;100.00
61039;BME280;46919;45.816;3.104;2023-04-29T05:40:43;97685.94;;;14.62;100.00
61039;BME280;46919;45.816;3.104;2023-04-29T05:43:08;97680.50;;;14.62;100.00
61039;BME280;46919;45.816;3.104;2023-04-29T05:45:34;97687.59;;;14.63;100.00
61039;BME280;46919;45.816;3.104;2023-04-29T05:47:59;97691.97;;;14.64;100.00
61039;BME280;46919;45.816;3.104;2023-04-29T05:50:25;97690.63;;;14.66;100.00
61039;BME280;46919;45.816;3.104;2023-04-29T05:52:50;97682.97;;;14.63;100.00
61039;BME280;46919;45.816;3.104;2023-04-29T05:55:16;97689.56;;;14.67;100.00
61039;BME280;46919;45.816;3.104;2023-04-29T05:57:41;97690.94;;;14.70;100.00
61039;BME280;46919;45.816;3.104;2023-04-29T06:00:07;97692.31;;;14.73;100.00
61039;BME280;46919;45.816;3.104;2023-04-29T06:02:34;97692.88;;;14.75;100.00
61039;BME280;46919;45.816;3.104;2023-04-29T06:04:59;97690.28;;;14.85;100.00
61039;BME280;46919;45.816;3.104;2023-04-29T06:07:25;97694.69;;;14.91;100.00
61039;BME280;46919;45.816;3.104;2023-04-29T06:09:51;97694.69;;;14.91;100.00
61039;BME280;46919;45.816;3.104;2023-04-29T06:12:17;97700.44;;;14.95;100.00
61039;BME280;46919;45.816;3.104;2023-04-29T06:14:42;97698.84;;;14.99;100.00
61039;BME280;46919;45.816;3.104;2023-04-29T06:17:08;97698.38;;;15.07;100.00
61039;BME280;46919;45.816;3.104;2023-04-29T06:19:33;97697.13;;;15.20;100.00
61039;BME280;46919;45.816;3.104;2023-04-29T06:21:59;97692.47;;;15.20;100.00
61039;BME280;46919;45.816;3.104;2023-04-29T06:24:24;97694.72;;;15.29;100.00
61039;BME280;46919;45.816;3.104;2023-04-29T06:26:50;97696.16;;;15.36;100.00
61039;BME280;46919;45.816;3.104;2023-04-29T06:29:15;97689.94;;;15.46;100.00
61039;BME280;46919;45.816;3.104;2023-04-29T06:31:41;97691.91;;;15.51;100.00
61039;BME280;46919;45.816;3.104;2023-04-29T06:34:06;97695.75;;;15.55;100.00
61039;BME280;46919;45.816;3.104;2023-04-29T06:36:32;97693.59;;;15.62;100.00
61039;BME280;46919;45.816;3.104;2023-04-29T06:38:57;97695.53;;;15.67;100.00
61039;BME280;46919;45.816;3.104;2023-04-29T06:41:22;97696.97;;;15.74;100.00
61039;BME280;46919;45.816;3.104;2023-04-29T06:43:48;97703.31;;;15.85;100.00
61039;BME280;46919;45.816;3.104;2023-04-29T06:46:13;97716.44;;;15.93;100.00
61039;BME280;46919;45.816;3.104;2023-04-29T06:48:38;97717.03;;;16.01;100.00
61039;BME280;46919;45.816;3.104;2023-04-29T06:51:04;97715.69;;;16.03;100.00
61039;BME280;46919;45.816;3.104;2023-04-29T06:53:30;97718.94;;;16.00;100.00
61039;BME280;46919;45.816;3.104;2023-04-29T06:55:55;97719.50;;;16.02;100.00
61039;BME280;46919;45.816;3.104;2023-04-29T06:58:20;97728.75;;;16.01;100.00
61039;BME280;46919;45.816;3.104;2023-04-29T07:00:47;97717.28;;;15.94;100.00
61039;BME280;46919;45.816;3.104;2023-04-29T07:03:14;97718.38;;;15.93;100.00
61039;BME280;46919;45.816;3.104;2023-04-29T07:05:39;97718.38;;;15.93;100.00
61039;BME280;46919;45.816;3.104;2023-04-29T07:08:06;97727.69;;;16.02;100.00
61039;BME280;46919;45.816;3.104;2023-04-29T07:10:32;97722.28;;;16.12;100.00
61039;BME280;46919;45.816;3.104;2023-04-29T07:12:57;97728.88;;;16.22;100.00
61039;BME280;46919;45.816;3.104;2023-04-29T07:15:25;97733.25;;;16.28;100.00
61039;BME280;46919;45.816;3.104;2023-04-29T07:17:50;97732.44;;;16.27;100.00
61039;BME280;46919;45.816;3.104;2023-04-29T07:20:16;97730.56;;;16.33;100.00
61039;BME280;46919;45.816;3.104;2023-04-29T07:22:41;97744.75;;;16.35;100.00
61039;BME280;46919;45.816;3.104;2023-04-29T07:25:07;97745.28;;;16.32;100.00
61039;BME280;46919;45.816;3.104;2023-04-29T07:27:33;97743.38;;;16.27;100.00
61039;BME280;46919;45.816;3.104;2023-04-29T07:30:00;97738.91;;;16.11;100.00
61039;BME280;46919;45.816;3.104;2023-04-29T07:32:25;97739.13;;;16.04;100.00
61039;BME280;46919;45.816;3.104;2023-04-29T07:34:51;97748.91;;;16.00;100.00
61039;BME280;46919;45.816;3.104;2023-04-29T07:37:17;97751.69;;;16.05;100.00
61039;BME280;46919;45.816;3.104;2023-04-29T07:39:42;97763.13;;;16.02;100.00
61039;BME280;46919;45.816;3.104;2023-04-29T07:42:08;97759.28;;;16.03;100.00
61039;BME280;46919;45.816;3.104;2023-04-29T07:44:33;97757.16;;;16.05;100.00
61039;BME280;46919;45.816;3.104;2023-04-29T07:46:58;97757.69;;;16.07;100.00
61039;BME280;46919;45.816;3.104;2023-04-29T07:49:24;97762.72;;;16.26;100.00
61039;BME280;46919;45.816;3.104;2023-04-29T07:51:50;97773.13;;;16.39;100.00
61039;BME280;46919;45.816;3.104;2023-04-29T07:54:15;97766.59;;;16.40;100.00
61039;BME280;46919;45.816;3.104;2023-04-29T07:56:41;97764.97;;;16.44;100.00
61039;BME280;46919;45.816;3.104;2023-04-29T07:59:07;97762.84;;;16.57;100.00
61039;BME280;46919;45.816;3.104;2023-04-29T08:01:32;97760.69;;;16.64;100.00
61039;BME280;46919;45.816;3.104;2023-04-29T08:03:57;97758.22;;;16.62;100.00
61039;BME280;46919;45.816;3.104;2023-04-29T08:06:23;97767.28;;;16.73;100.00
61039;BME280;46919;45.816;3.104;2023-04-29T08:08:48;97762.09;;;16.77;100.00
61039;BME280;46919;45.816;3.104;2023-04-29T08:11:18;97774.72;;;16.88;100.00
61039;BME280;46919;45.816;3.104;2023-04-29T08:13:44;97766.00;;;16.91;100.00
61039;BME280;46919;45.816;3.104;2023-04-29T08:16:10;97766.56;;;17.04;100.00
61039;BME280;46919;45.816;3.104;2023-04-29T08:18:35;97773.69;;;17.20;100.00
61039;BME280;46919;45.816;3.104;2023-04-29T08:21:01;97777.78;;;17.17;100.00
61039;BME280;46919;45.816;3.104;2023-04-29T08:23:27;97772.31;;;17.07;100.00
61039;BME280;46919;45.816;3.104;2023-04-29T08:25:52;97768.19;;;17.05;100.00
61039;BME280;46919;45.816;3.104;2023-04-29T08:28:20;97773.66;;;17.05;100.00
61039;BME280;46919;45.816;3.104;2023-04-29T08:30:45;97786.50;;;17.09;100.00
61039;BME280;46919;45.816;3.104;2023-04-29T08:33:11;97781.31;;;17.13;100.00
61039;BME280;46919;45.816;3.104;2023-04-29T08:35:37;97780.00;;;17.26;100.00
61039;BME280;46919;45.816;3.104;2023-04-29T08:38:04;97781.34;;;17.28;100.00
61039;BME280;46919;45.816;3.104;2023-04-29T08:40:33;97776.16;;;17.32;100.00
61039;BME280;46919;45.816;3.104;2023-04-29T08:42:59;97782.72;;;17.41;100.00
61039;BME280;46919;45.816;3.104;2023-04-29T08:45:26;97777.56;;;17.45;100.00
61039;BME280;46919;45.816;3.104;2023-04-29T08:47:54;97781.09;;;17.50;100.00
61039;BME280;46919;45.816;3.104;2023-04-29T08:50:21;97780.03;;;17.46;100.00
61039;BME280;46919;45.816;3.104;2023-04-29T08:52:49;97780.53;;;17.38;100.00
61039;BME280;46919;45.816;3.104;2023-04-29T08:55:16;97787.66;;;17.44;100.00
61039;BME280;46919;45.816;3.104;2023-04-29T08:57:43;97784.38;;;17.47;100.00
61039;BME280;46919;45.816;3.104;2023-04-29T09:00:09;97778.91;;;17.37;100.00
61039;BME280;46919;45.816;3.104;2023-04-29T09:02:48;97775.09;;;17.48;100.00
61039;BME280;46919;45.816;3.104;2023-04-29T09:05:14;97781.66;;;17.58;100.00
61039;BME280;46919;45.816;3.104;2023-04-29T09:07:40;97780.56;;;17.74;100.00
61039;BME280;46919;45.816;3.104;2023-04-29T09:10:07;97789.84;;;17.93;100.00
61039;BME280;46919;45.816;3.104;2023-04-29T09:12:33;97783.31;;;18.05;100.00
61039;BME280;46919;45.816;3.104;2023-04-29T09:14:58;97784.06;;;18.16;100.00
61039;BME280;46919;45.816;3.104;2023-04-29T09:17:40;97782.72;;;18.08;100.00
61039;BME280;46919;45.816;3.104;2023-04-29T09:20:27;97783.00;;;18.06;100.00
61039;BME280;46919;45.816;3.104;2023-04-29T09:23:02;97777.53;;;18.12;100.00
61039;BME280;46919;45.816;3.104;2023-04-29T09:25:29;97781.09;;;18.22;100.00
61039;BME280;46919;45.816;3.104;2023-04-29T09:27:55;97770.91;;;18.38;100.00
61039;BME280;46919;45.816;3.104;2023-04-29T09:30:21;97778.56;;;18.31;100.00
61039;BME280;46919;45.816;3.104;2023-04-29T09:33:05;97791.16;;;18.27;100.00
61039;BME280;46919;45.816;3.104;2023-04-29T09:35:30;97797.19;;;18.34;100.00
61039;BME280;46919;45.816;3.104;2023-04-29T09:38:16;97795.81;;;18.26;100.00
61039;BME280;46919;45.816;3.104;2023-04-29T09:40:43;97801.31;;;18.21;100.00
61039;BME280;46919;45.816;3.104;2023-04-29T09:43:15;97793.69;;;18.13;100.00
61039;BME280;46919;45.816;3.104;2023-04-29T09:45:47;97786.03;;;18.10;100.00
61039;BME280;46919;45.816;3.104;2023-04-29T09:48:13;97790.91;;;18.18;100.00
61039;BME280;46919;45.816;3.104;2023-04-29T09:50:41;97791.16;;;18.32;100.00
61039;BME280;46919;45.816;3.104;2023-04-29T09:53:09;97798.00;;;18.40;100.00
61039;BME280;46919;45.816;3.104;2023-04-29T09:58:31;97794.84;;;18.72;100.00
61039;BME280;46919;45.816;3.104;2023-04-29T10:01:02;97798.97;;;18.70;100.00
61039;BME280;46919;45.816;3.104;2023-04-29T10:03:32;97802.78;;;18.74;100.00
61039;BME280;46919;45.816;3.104;2023-04-29T10:05:59;97791.25;;;18.82;100.00
61039;BME280;46919;45.816;3.104;2023-04-29T10:08:26;97796.72;;;18.87;100.00
61039;BME280;46919;45.816;3.104;2023-04-29T10:10:53;97792.34;;;18.91;100.00
61039;BME280;46919;45.816;3.104;2023-04-29T10:13:25;97785.78;;;18.87;100.00
61039;BME280;46919;45.816;3.104;2023-04-29T10:16:30;97789.63;;;18.86;100.00
61039;BME280;46919;45.816;3.104;2023-04-29T10:18:59;97792.91;;;18.83;100.00
61039;BME280;46919;45.816;3.104;2023-04-29T10:21:29;97792.34;;;18.81;100.00
61039;BME280;46919;45.816;3.104;2023-04-29T10:23:58;97791.84;;;18.74;100.00
61039;BME280;46919;45.816;3.104;2023-04-29T10:26:27;97786.88;;;18.91;100.00
61039;BME280;46919;45.816;3.104;2023-04-29T10:28:55;97783.41;;;19.20;100.00
61039;BME280;46919;45.816;3.104;2023-04-29T10:31:21;97781.19;;;19.22;99.95
61039;BME280;46919;45.816;3.104;2023-04-29T10:33:50;97779.75;;;19.35;97.20
61039;BME280;46919;45.816;3.104;2023-04-29T10:36:19;97788.03;;;19.64;97.86
61039;BME280;46919;45.816;3.104;2023-04-29T10:38:48;97779.75;;;19.69;98.34
61039;BME280;46919;45.816;3.104;2023-04-29T10:41:26;97780.75;;;19.84;97.43
61039;BME280;46919;45.816;3.104;2023-04-29T10:43:53;97777.59;;;20.01;97.80
61039;BME280;46919;45.816;3.104;2023-04-29T10:46:21;97776.91;;;19.85;95.93
61039;BME280;46919;45.816;3.104;2023-04-29T10:48:48;97770.53;;;19.95;97.00
61039;BME280;46919;45.816;3.104;2023-04-29T10:51:43;97767.28;;;20.17;92.77
61039;BME280;46919;45.816;3.104;2023-04-29T10:54:12;97774.06;;;19.95;96.13
61039;BME280;46919;45.816;3.104;2023-04-29T10:56:51;97780.75;;;19.84;95.01
61039;BME280;46919;45.816;3.104;2023-04-29T11:01:53;97786.09;;;19.70;98.30
61039;BME280;46919;45.816;3.104;2023-04-29T11:04:20;97779.19;;;19.72;96.91
61039;BME280;46919;45.816;3.104;2023-04-29T11:06:56;97780.53;;;19.80;95.13
61039;BME280;46919;45.816;3.104;2023-04-29T11:09:31;97783.75;;;19.87;95.85
61039;BME280;46919;45.816;3.104;2023-04-29T11:12:08;97778.50;;;19.91;94.02
61039;BME280;46919;45.816;3.104;2023-04-29T11:14:36;97769.38;;;20.01;95.31
61039;BME280;46919;45.816;3.104;2023-04-29T11:17:06;97762.59;;;20.17;93.35
61039;BME280;46919;45.816;3.104;2023-04-29T11:19:34;97762.16;;;20.34;91.56
61039;BME280;46919;45.816;3.104;2023-04-29T11:22:23;97756.56;;;20.44;84.23
61039;BME280;46919;45.816;3.104;2023-04-29T11:25:01;97751.16;;;20.58;86.01
61039;BME280;46919;45.816;3.104;2023-04-29T11:27:31;97758.28;;;20.84;85.76
61039;BME280;46919;45.816;3.104;2023-04-29T11:29:58;97753.63;;;20.84;86.50
61039;BME280;46919;45.816;3.104;2023-04-29T11:32:31;97756.78;;;20.72;85.21
61039;BME280;46919;45.816;3.104;2023-04-29T11:37:32;97751.41;;;20.62;82.04
61039;BME280;46919;45.816;3.104;2023-04-29T11:39:59;97744.03;;;20.33;80.25
61039;BME280;46919;45.816;3.104;2023-04-29T11:42:25;97742.19;;;20.29;80.79
61039;BME280;46919;45.816;3.104;2023-04-29T11:44:53;97737.16;;;20.36;80.15
61039;BME280;46919;45.816;3.104;2023-04-29T11:47:18;97727.38;;;20.73;80.27
61039;BME280;46919;45.816;3.104;2023-04-29T11:49:45;97727.56;;;21.01;79.74
61039;BME280;46919;45.816;3.104;2023-04-29T11:52:11;97717.53;;;21.10;75.86
61039;BME280;46919;45.816;3.104;2023-04-29T11:54:37;97724.66;;;21.30;77.49
61039;BME280;46919;45.816;3.104;2023-04-29T11:57:03;97719.09;;;21.35;77.17
61039;BME280;46919;45.816;3.104;2023-04-29T11:59:30;97716.34;;;21.35;76.89
61039;BME280;46919;45.816;3.104;2023-04-29T12:01:57;97716.53;;;21.58;77.42
61039;BME280;46919;45.816;3.104;2023-04-29T12:04:24;97719.59;;;21.56;78.07
61039;BME280;46919;45.816;3.104;2023-04-29T12:06:56;97712.56;;;21.97;77.91
61039;BME280;46919;45.816;3.104;2023-04-29T12:09:21;97716.59;;;21.85;74.54
61039;BME280;46919;45.816;3.104;2023-04-29T12:11:48;97717.25;;;21.44;77.38
61039;BME280;46919;45.816;3.104;2023-04-29T12:14:16;97716.94;;;21.13;78.58
61039;BME280;46919;45.816;3.104;2023-04-29T12:16:43;97719.09;;;20.78;77.71
61039;BME280;46919;45.816;3.104;2023-04-29T12:19:10;97721.03;;;21.15;75.94
61039;BME280;46919;45.816;3.104;2023-04-29T12:21:36;97720.28;;;21.29;74.41
61039;BME280;46919;45.816;3.104;2023-04-29T12:24:01;97715.97;;;21.75;72.54
61039;BME280;46919;45.816;3.104;2023-04-29T12:26:28;97710.63;;;22.11;71.78
61039;BME280;46919;45.816;3.104;2023-04-29T12:28:56;97705.63;;;22.69;69.65
61039;BME280;46919;45.816;3.104;2023-04-29T12:31:23;97715.78;;;22.96;72.96
61039;BME280;46919;45.816;3.104;2023-04-29T12:33:52;97712.91;;;23.38;70.10
61039;BME280;46919;45.816;3.104;2023-04-29T12:36:18;97724.56;;;23.57;68.93
61039;BME280;46919;45.816;3.104;2023-04-29T12:38:44;97719.75;;;23.04;69.76
61039;BME280;46919;45.816;3.104;2023-04-29T12:41:11;97729.50;;;22.59;71.25
61039;BME280;46919;45.816;3.104;2023-04-29T12:43:38;97722.31;;;22.03;71.50
61039;BME280;46919;45.816;3.104;2023-04-29T12:46:08;97730.63;;;21.70;72.23
61039;BME280;46919;45.816;3.104;2023-04-29T12:48:35;97733.63;;;21.55;72.08
61039;BME280;46919;45.816;3.104;2023-04-29T12:51:11;97726.19;;;21.36;73.79
61039;BME280;46919;45.816;3.104;2023-04-29T12:53:37;97717.25;;;21.11;73.55
61039;BME280;46919;45.816;3.104;2023-04-29T12:56:04;97714.34;;;20.84;72.54
61039;BME280;46919;45.816;3.104;2023-04-29T12:58:30;97722.44;;;20.75;73.69
61039;BME280;46919;45.816;3.104;2023-04-29T13:00:57;97723.91;;;20.67;74.20
61039;BME280;46919;45.816;3.104;2023-04-29T13:03:22;97723.13;;;20.61;74.88